Norton, Texas
Current Conditions -  °F | °C
As of 4:51 AM on Tuesday 21 Oct 2014 (Local Time) from KSJT Reporting Station
Few Clouds Few Clouds  
Wind Chill: 56°   Ceiling: Unl
Heat Index: 56°   Visibility: 10mi
Dew Point: 50°   Wind: 3mph
Humidity: 80%   Direction: 280°W
Pressure: 30.07"   Gusts: NA
Location:  31.87°N, 100.13°W
Report Text: KSJT 210951Z AUTO 28003KT 10SM FEW050 13/10 A3007 RMK AO2 SLP166 T01330100
Loading
Personal Weather Stations






























Interactive Weather Map
Tropical Storm Tracking
New forecast layout! Learn more

10-Day Weather Forecast

Advertisements
Track Severe Weather on mobile